Annabella, Utah
Current Conditions -  °F | °C
As of 2:55 PM on Thursday 27 Nov 2014 (Local Time) from KDTA Reporting Station
Clear Clear  
Wind Chill: 53°   Ceiling: Unl
Heat Index: 53°   Visibility: 10mi
Dew Point: 24°   Wind: 0mph
Humidity: 33%   Direction: NA
Pressure: 30.25"   Gusts: NA
Location:  38.71°N, 112.06°W
Report Text: KDTA 272155Z AUTO 00000KT 10SM CLR 12/M04 A3025 RMK AO1 T01151045
Loading
Personal Weather Stations






























Interactive Weather Map New forecast layout! Learn more

10-Day Weather Forecast

Advertisements
Track Severe Weather on mobile